Time;durP1;ratioP1;P1;durP2;ratioP2;P2;SDS_P1;SDS_P2;PMS_P1;PMS_P2;Temp;Humidity;BMP_temperature;BMP_pressure;BME280_temperature;BME280_humidity;BME280_pressure;Samples;Min_cycle;Max_cycle;Signal;HPM_P1;HPM_P2
2023/01/06 00:03:13;;;;;;;26.00;11.80;;;;;;;;;;10468345;28;20445;-78
2023/01/06 00:08:14;;;;;;;26.55;10.45;;;;;;;;;;10467417;28;20112;-75
2023/01/06 00:13:14;;;;;;;16.43;8.70;;;;;;;;;;10483928;28;20501;-77
2023/01/06 00:18:14;;;;;;;21.55;7.45;;;;;;;;;;10450195;28;20139;-76
2023/01/06 00:23:15;;;;;;;14.80;7.55;;;;;;;;;;10466372;28;20052;-71
2023/01/06 00:28:15;;;;;;;18.20;7.15;;;;;;;;;;10466253;28;20502;-75
2023/01/06 00:33:15;;;;;;;15.30;7.85;;;;;;;;;;10466451;28;20538;-78
2023/01/06 00:38:16;;;;;;;16.98;8.02;;;;;;;;;;10466432;28;20020;-77
2023/01/06 00:43:16;;;;;;;16.85;7.78;;;;;;;;;;10465581;28;20587;-70
2023/01/06 00:48:16;;;;;;;12.60;6.65;;;;;;;;;;10465652;28;20035;-74
2023/01/06 00:53:16;;;;;;;14.50;6.40;;;;;;;;;;10484057;28;20052;-72
2023/01/06 00:58:17;;;;;;;14.30;6.45;;;;;;;;;;10465456;28;20263;-74
2023/01/06 01:03:17;;;;;;;11.30;6.63;;;;;;;;;;10482715;28;20121;-71
2023/01/06 01:08:17;;;;;;;16.52;6.47;;;;;;;;;;10465499;28;20025;-75
2023/01/06 01:13:17;;;;;;;12.45;5.35;;;;;;;;;;10439865;28;20025;-72
2023/01/06 01:18:18;;;;;;;9.75;5.75;;;;;;;;;;10441687;28;20021;-75
2023/01/06 01:23:18;;;;;;;10.55;4.80;;;;;;;;;;10464949;28;20071;-73
2023/01/06 01:28:18;;;;;;;10.90;4.82;;;;;;;;;;10465308;28;20079;-73
2023/01/06 01:33:19;;;;;;;11.27;5.60;;;;;;;;;;10465218;28;20020;-78
2023/01/06 01:38:19;;;;;;;7.27;4.63;;;;;;;;;;10465798;28;20046;-76
2023/01/06 01:43:19;;;;;;;14.30;5.68;;;;;;;;;;10465048;28;20075;-76
2023/01/06 01:48:25;;;;;;;10.15;5.38;;;;;;;;;;10464445;28;20020;-75
2023/01/06 01:53:30;;;;;;;12.15;5.25;;;;;;;;;;10485509;28;20406;-77
2023/01/06 01:58:33;;;;;;;10.02;5.25;;;;;;;;;;10489387;28;20099;-74
2023/01/06 02:03:33;;;;;;;7.32;4.97;;;;;;;;;;10489041;28;20044;-76
2023/01/06 02:08:40;;;;;;;14.05;4.85;;;;;;;;;;10460184;28;20016;-74
2023/01/06 02:13:41;;;;;;;7.40;4.10;;;;;;;;;;10463916;28;20067;-74
2023/01/06 02:18:44;;;;;;;7.75;4.18;;;;;;;;;;10482538;28;20059;-72
2023/01/06 02:24:03;;;;;;;7.35;3.95;;;;;;;;;;10463365;28;20045;-72
2023/01/06 02:29:03;;;;;;;7.13;3.67;;;;;;;;;;10463635;28;20020;-77
2023/01/06 02:34:08;;;;;;;5.63;3.08;;;;;;;;;;10463349;28;20781;-76
2023/01/06 02:39:08;;;;;;;5.38;3.25;;;;;;;;;;10463523;28;20024;-76
2023/01/06 02:44:15;;;;;;;10.13;2.92;;;;;;;;;;10470632;28;20475;-77
2023/01/06 02:49:15;;;;;;;13.73;3.25;;;;;;;;;;10470081;28;20020;-73
2023/01/06 02:54:29;;;;;;;4.88;2.45;;;;;;;;;;10471009;28;20406;-76
2023/01/06 02:59:32;;;;;;;4.95;2.53;;;;;;;;;;10470254;28;20039;-72
2023/01/06 03:04:36;;;;;;;6.78;3.53;;;;;;;;;;10469453;28;20047;-72
2023/01/06 03:09:37;;;;;;;7.07;3.70;;;;;;;;;;10470201;28;20103;-77
2023/01/06 03:14:39;;;;;;;13.88;3.70;;;;;;;;;;10470774;28;20456;-72
2023/01/06 03:19:39;;;;;;;6.60;3.30;;;;;;;;;;10487422;28;20053;-73
2023/01/06 03:24:40;;;;;;;6.50;3.70;;;;;;;;;;10487435;28;20049;-76
2023/01/06 03:29:41;;;;;;;6.72;4.25;;;;;;;;;;10456115;28;20020;-76
2023/01/06 03:34:47;;;;;;;11.23;3.33;;;;;;;;;;10460876;28;20462;-75
2023/01/06 03:39:47;;;;;;;5.20;3.10;;;;;;;;;;10460831;28;20255;-75
2023/01/06 03:44:55;;;;;;;8.07;3.47;;;;;;;;;;10468871;28;20032;-72
2023/01/06 03:50:00;;;;;;;4.90;3.33;;;;;;;;;;10469660;28;20024;-73
2023/01/06 03:55:15;;;;;;;9.27;2.42;;;;;;;;;;10467108;28;20140;-79
2023/01/06 04:00:21;;;;;;;7.65;3.38;;;;;;;;;;10485603;28;20630;-77
2023/01/06 04:05:23;;;;;;;5.30;2.92;;;;;;;;;;10466953;28;20028;-75
2023/01/06 04:10:23;;;;;;;8.30;2.78;;;;;;;;;;10485311;28;20052;-76
2023/01/06 04:15:25;;;;;;;9.25;3.85;;;;;;;;;;10485298;28;20126;-73
2023/01/06 04:20:27;;;;;;;7.03;2.58;;;;;;;;;;10467439;28;20012;-77
2023/01/06 04:25:27;;;;;;;6.05;2.88;;;;;;;;;;10451093;28;20501;-73
2023/01/06 04:30:28;;;;;;;5.18;3.70;;;;;;;;;;10460497;28;20017;-75
2023/01/06 04:35:28;;;;;;;5.07;3.00;;;;;;;;;;10466760;28;20021;-79
2023/01/06 04:40:28;;;;;;;4.43;2.80;;;;;;;;;;10453378;28;20540;-77
2023/01/06 04:45:28;;;;;;;9.55;2.80;;;;;;;;;;10440040;28;20017;-77
2023/01/06 04:50:29;;;;;;;7.38;3.08;;;;;;;;;;10472321;28;20004;-78
2023/01/06 04:55:29;;;;;;;6.22;3.42;;;;;;;;;;10457063;28;20047;-79
2023/01/06 05:00:29;;;;;;;9.48;3.88;;;;;;;;;;10447311;28;20028;-72
2023/01/06 05:05:30;;;;;;;6.43;3.38;;;;;;;;;;10441506;28;20028;-80
2023/01/06 05:10:30;;;;;;;3.88;2.90;;;;;;;;;;10450894;28;20016;-74
2023/01/06 05:15:30;;;;;;;3.47;2.03;;;;;;;;;;10438041;28;20068;-76
2023/01/06 05:20:30;;;;;;;5.72;2.72;;;;;;;;;;10442992;28;20517;-73
2023/01/06 05:25:31;;;;;;;6.53;3.45;;;;;;;;;;10454393;28;20522;-79
2023/01/06 05:30:31;;;;;;;4.50;3.05;;;;;;;;;;10462060;28;20016;-73
2023/01/06 05:35:31;;;;;;;7.90;3.08;;;;;;;;;;10447448;28;20498;-76
2023/01/06 05:40:33;;;;;;;7.35;2.88;;;;;;;;;;10460041;28;20036;-77
2023/01/06 05:45:33;;;;;;;3.95;2.28;;;;;;;;;;10471465;28;20028;-72
2023/01/06 05:50:33;;;;;;;5.53;3.13;;;;;;;;;;10479732;28;20024;-75
2023/01/06 05:55:34;;;;;;;5.25;3.08;;;;;;;;;;10444116;28;20024;-75
2023/01/06 06:00:34;;;;;;;10.13;3.78;;;;;;;;;;10464097;28;20024;-75
2023/01/06 06:05:34;;;;;;;5.72;2.88;;;;;;;;;;10462052;28;20115;-77
2023/01/06 06:10:34;;;;;;;4.13;2.22;;;;;;;;;;10460409;28;20025;-74
2023/01/06 06:15:35;;;;;;;5.13;2.38;;;;;;;;;;10462468;28;20494;-75
2023/01/06 06:20:35;;;;;;;7.43;2.97;;;;;;;;;;10467665;28;20114;-74
2023/01/06 06:25:35;;;;;;;5.20;2.17;;;;;;;;;;10454574;28;20054;-74
2023/01/06 06:30:36;;;;;;;5.93;2.50;;;;;;;;;;10489435;28;20051;-73
2023/01/06 06:35:36;;;;;;;7.33;2.17;;;;;;;;;;10488444;28;20131;-73
2023/01/06 06:40:36;;;;;;;5.25;2.17;;;;;;;;;;10488214;28;20773;-77
2023/01/06 06:45:36;;;;;;;4.05;1.85;;;;;;;;;;10470907;28;20456;-79
2023/01/06 06:50:37;;;;;;;5.88;2.08;;;;;;;;;;10488327;28;20554;-79
2023/01/06 06:55:37;;;;;;;5.55;1.90;;;;;;;;;;10470031;28;20504;-75
2023/01/06 07:00:37;;;;;;;4.20;2.43;;;;;;;;;;10470387;28;20667;-77
2023/01/06 07:05:40;;;;;;;4.10;2.25;;;;;;;;;;10488445;28;20486;-80
2023/01/06 07:10:40;;;;;;;3.42;2.33;;;;;;;;;;10469559;28;20025;-75
2023/01/06 07:15:41;;;;;;;6.53;2.33;;;;;;;;;;10469778;28;20452;-72
2023/01/06 07:20:45;;;;;;;4.90;2.40;;;;;;;;;;10469381;28;20039;-74
2023/01/06 07:25:49;;;;;;;3.95;2.00;;;;;;;;;;10469639;28;20131;-76
2023/01/06 07:30:50;;;;;;;19.67;1.90;;;;;;;;;;10486011;28;20105;-75
2023/01/06 07:35:51;;;;;;;9.23;2.72;;;;;;;;;;10468934;28;20354;-78
2023/01/06 07:40:51;;;;;;;9.35;1.88;;;;;;;;;;10486614;28;20032;-77
2023/01/06 07:45:52;;;;;;;2.80;1.63;;;;;;;;;;10468813;28;20017;-78
2023/01/06 07:50:52;;;;;;;5.18;2.15;;;;;;;;;;10469403;28;20257;-76
2023/01/06 07:55:53;;;;;;;7.15;2.20;;;;;;;;;;10468126;28;20024;-75
2023/01/06 08:00:53;;;;;;;10.25;2.28;;;;;;;;;;10468049;28;20047;-74
2023/01/06 08:05:54;;;;;;;3.80;1.88;;;;;;;;;;10467187;28;20158;-75
2023/01/06 08:10:56;;;;;;;5.18;1.90;;;;;;;;;;10467096;28;20023;-74
2023/01/06 08:15:57;;;;;;;6.93;2.20;;;;;;;;;;10467268;28;20033;-73
2023/01/06 08:21:01;;;;;;;2.87;1.53;;;;;;;;;;10466738;28;20024;-76
2023/01/06 08:26:02;;;;;;;4.50;2.17;;;;;;;;;;10442132;28;20415;-77
2023/01/06 08:31:02;;;;;;;4.75;2.00;;;;;;;;;;10443454;28;20407;-79
2023/01/06 08:36:05;;;;;;;6.77;2.40;;;;;;;;;;10440990;28;20029;-73
2023/01/06 08:41:05;;;;;;;11.73;2.58;;;;;;;;;;10440597;28;20263;-76
2023/01/06 08:46:07;;;;;;;5.03;1.80;;;;;;;;;;10442932;28;20074;-76
2023/01/06 08:51:09;;;;;;;3.88;1.55;;;;;;;;;;10440602;28;20080;-73
2023/01/06 08:56:11;;;;;;;5.13;2.13;;;;;;;;;;10440705;28;20033;-76
2023/01/06 09:01:15;;;;;;;7.07;2.40;;;;;;;;;;10426919;28;20407;-74
2023/01/06 09:06:16;;;;;;;3.17;0.90;;;;;;;;;;10440209;28;20040;-77
2023/01/06 09:11:17;;;;;;;6.88;1.52;;;;;;;;;;10440117;28;20035;-75
2023/01/06 09:16:18;;;;;;;2.43;0.80;;;;;;;;;;10440833;28;20035;-77
2023/01/06 09:21:19;;;;;;;11.98;1.77;;;;;;;;;;10414839;28;20035;-78
2023/01/06 09:26:20;;;;;;;4.15;1.48;;;;;;;;;;10445358;28;20039;-77
2023/01/06 09:31:20;;;;;;;2.70;1.13;;;;;;;;;;10464501;28;20028;-77
2023/01/06 09:36:21;;;;;;;3.33;1.10;;;;;;;;;;10463901;28;20032;-74
2023/01/06 09:41:28;;;;;;;3.60;1.37;;;;;;;;;;10464244;28;20031;-79
2023/01/06 09:46:30;;;;;;;4.07;1.50;;;;;;;;;;10464331;28;20878;-75
2023/01/06 09:51:31;;;;;;;3.40;1.05;;;;;;;;;;10468524;28;20028;-77
2023/01/06 09:56:31;;;;;;;4.60;1.27;;;;;;;;;;10472437;28;20566;-77
2023/01/06 10:01:35;;;;;;;2.58;1.00;;;;;;;;;;10472092;28;20036;-80
2023/01/06 10:06:39;;;;;;;3.72;1.13;;;;;;;;;;10448181;28;20029;-79
2023/01/06 10:11:58;;;;;;;4.95;0.80;;;;;;;;;;10455421;28;20084;-73
2023/01/06 10:17:04;;;;;;;1.98;0.60;;;;;;;;;;10494127;28;20028;-74
2023/01/06 10:22:23;;;;;;;2.17;0.70;;;;;;;;;;10490625;28;20087;-78
2023/01/06 10:27:31;;;;;;;7.68;1.00;;;;;;;;;;10471619;28;20025;-73
2023/01/06 10:32:33;;;;;;;2.55;0.60;;;;;;;;;;10454259;28;20025;-73
2023/01/06 10:37:38;;;;;;;1.00;0.55;;;;;;;;;;10470740;28;20025;-74
2023/01/06 10:42:56;;;;;;;1.17;0.50;;;;;;;;;;10470169;28;20109;-73
2023/01/06 10:47:56;;;;;;;1.63;0.40;;;;;;;;;;10471064;28;20418;-74
2023/01/06 10:52:57;;;;;;;2.28;0.90;;;;;;;;;;10470550;28;20021;-76
2023/01/06 10:58:00;;;;;;;2.35;0.90;;;;;;;;;;10488314;28;20016;-77
2023/01/06 11:03:04;;;;;;;7.38;1.40;;;;;;;;;;10469032;28;20556;-76
2023/01/06 11:08:06;;;;;;;13.38;1.17;;;;;;;;;;10456945;28;20031;-78
2023/01/06 11:13:19;;;;;;;7.57;1.20;;;;;;;;;;10429231;28;20040;-79
2023/01/06 11:18:26;;;;;;;1.58;1.15;;;;;;;;;;10464547;28;20086;-81
2023/01/06 11:23:28;;;;;;;5.15;1.40;;;;;;;;;;10468887;28;20127;-77
2023/01/06 11:28:29;;;;;;;4.95;1.15;;;;;;;;;;10469138;28;20025;-79
2023/01/06 11:33:30;;;;;;;3.45;1.25;;;;;;;;;;10469050;28;20111;-73
2023/01/06 11:38:31;;;;;;;4.53;1.27;;;;;;;;;;10463010;28;20036;-76
2023/01/06 11:43:32;;;;;;;4.00;1.20;;;;;;;;;;10468781;28;20047;-73
2023/01/06 11:48:46;;;;;;;2.63;1.05;;;;;;;;;;10468487;28;20031;-74
2023/01/06 11:53:55;;;;;;;2.45;1.27;;;;;;;;;;10468495;28;20024;-74
2023/01/06 11:58:55;;;;;;;3.53;1.17;;;;;;;;;;10485897;28;20403;-77
2023/01/06 12:04:03;;;;;;;3.85;1.35;;;;;;;;;;10486110;28;20112;-78
2023/01/06 12:09:12;;;;;;;3.60;1.40;;;;;;;;;;10486041;28;20122;-79
2023/01/06 12:14:17;;;;;;;1.65;0.95;;;;;;;;;;10466386;28;20514;-75
2023/01/06 12:19:21;;;;;;;8.50;1.77;;;;;;;;;;10450827;28;20033;-75
2023/01/06 12:24:23;;;;;;;2.58;1.25;;;;;;;;;;10442154;28;20049;-78
2023/01/06 12:29:24;;;;;;;2.00;1.02;;;;;;;;;;10442632;28;20033;-79
2023/01/06 12:34:46;;;;;;;5.82;1.30;;;;;;;;;;10441941;28;20031;-74
2023/01/06 12:39:59;;;;;;;4.25;2.30;;;;;;;;;;10442073;28;20036;-79
2023/01/06 12:45:01;;;;;;;4.85;1.00;;;;;;;;;;10441785;28;20404;-77
2023/01/06 12:50:05;;;;;;;4.53;1.30;;;;;;;;;;10441801;28;20108;-79
2023/01/06 12:55:08;;;;;;;3.90;1.80;;;;;;;;;;10446737;28;20033;-76
2023/01/06 13:00:17;;;;;;;3.95;1.80;;;;;;;;;;10442313;28;20029;-78
2023/01/06 13:05:36;;;;;;;11.30;1.70;;;;;;;;;;10436673;28;20025;-79
2023/01/06 13:10:38;;;;;;;4.57;1.83;;;;;;;;;;10440216;28;20017;-75
2023/01/06 13:15:41;;;;;;;4.85;1.80;;;;;;;;;;10440557;28;20116;-75
2023/01/06 13:20:57;;;;;;;17.88;2.13;;;;;;;;;;10439790;28;20432;-80
2023/01/06 13:26:12;;;;;;;4.82;1.70;;;;;;;;;;10444361;28;20541;-74
2023/01/06 13:31:26;;;;;;;5.97;2.10;;;;;;;;;;10460845;28;20021;-75
2023/01/06 13:36:45;;;;;;;7.85;2.35;;;;;;;;;;10463448;28;20513;-81
2023/01/06 13:41:47;;;;;;;4.95;1.45;;;;;;;;;;10445902;28;20024;-77
2023/01/06 13:46:49;;;;;;;3.55;1.90;;;;;;;;;;10453888;28;20025;-75
2023/01/06 13:51:49;;;;;;;3.63;1.90;;;;;;;;;;10441535;28;20025;-77
2023/01/06 13:57:09;;;;;;;4.30;1.80;;;;;;;;;;10460727;28;20033;-75
2023/01/06 14:02:30;;;;;;;4.07;1.42;;;;;;;;;;10439957;28;20036;-79
2023/01/06 14:07:31;;;;;;;5.38;1.77;;;;;;;;;;10438845;28;20119;-76
2023/01/06 14:12:33;;;;;;;3.88;2.35;;;;;;;;;;10417066;28;20047;-76
2023/01/06 14:17:39;;;;;;;5.18;3.28;;;;;;;;;;10439634;28;20044;-79
2023/01/06 14:22:39;;;;;;;4.38;2.17;;;;;;;;;;10451553;28;20360;-76
2023/01/06 14:27:45;;;;;;;6.93;2.47;;;;;;;;;;10451387;28;20028;-75
2023/01/06 14:32:45;;;;;;;3.45;1.90;;;;;;;;;;10462251;28;20028;-72
2023/01/06 14:37:52;;;;;;;11.85;3.17;;;;;;;;;;10466998;28;20025;-76
2023/01/06 14:42:54;;;;;;;3.95;2.45;;;;;;;;;;10468813;28;20054;-74
2023/01/06 14:48:02;;;;;;;7.45;2.67;;;;;;;;;;10465269;28;20035;-77
2023/01/06 14:53:08;;;;;;;9.02;3.38;;;;;;;;;;10469831;28;20028;-76
2023/01/06 14:58:27;;;;;;;6.53;2.75;;;;;;;;;;10487137;28;20032;-76
2023/01/06 15:03:28;;;;;;;9.68;2.95;;;;;;;;;;10467703;28;20048;-76
2023/01/06 15:08:29;;;;;;;8.02;3.47;;;;;;;;;;10468545;28;20033;-75
2023/01/06 15:13:30;;;;;;;6.55;2.88;;;;;;;;;;10468959;28;20035;-77
2023/01/06 15:18:32;;;;;;;6.45;2.83;;;;;;;;;;10468793;28;20433;-72
2023/01/06 15:23:32;;;;;;;5.38;2.83;;;;;;;;;;10458257;28;20041;-78
2023/01/06 15:28:33;;;;;;;8.37;2.63;;;;;;;;;;10499092;28;20025;-73
2023/01/06 15:33:38;;;;;;;5.22;3.20;;;;;;;;;;10487620;28;20350;-73
2023/01/06 15:38:39;;;;;;;7.32;2.17;;;;;;;;;;10506753;28;20028;-76
2023/01/06 15:43:41;;;;;;;12.88;3.80;;;;;;;;;;10475567;28;20480;-79
2023/01/06 15:48:46;;;;;;;7.55;2.72;;;;;;;;;;10462612;28;20028;-76
2023/01/06 15:53:48;;;;;;;5.60;2.70;;;;;;;;;;10467563;28;20028;-73
2023/01/06 15:58:49;;;;;;;5.97;2.95;;;;;;;;;;10484530;28;20033;-76
2023/01/06 16:03:51;;;;;;;7.57;3.10;;;;;;;;;;10480514;28;20448;-76
2023/01/06 16:08:52;;;;;;;10.63;3.50;;;;;;;;;;10483705;28;20113;-76
2023/01/06 16:13:58;;;;;;;4.50;2.65;;;;;;;;;;10484095;28;20083;-75
2023/01/06 16:19:06;;;;;;;7.40;2.53;;;;;;;;;;10464927;28;20035;-76
2023/01/06 16:24:08;;;;;;;;;;;;;;;;;;10465739;28;20044;-77
2023/01/06 16:29:25;;;;;;;7.60;2.70;;;;;;;;;;10466213;28;19913;-77
2023/01/06 16:34:31;;;;;;;7.97;2.58;;;;;;;;;;10461750;28;20151;-75
2023/01/06 16:39:31;;;;;;;10.90;2.30;;;;;;;;;;10469245;28;20039;-74
2023/01/06 16:44:33;;;;;;;3.38;2.10;;;;;;;;;;10482764;28;20047;-75
2023/01/06 16:49:33;;;;;;;6.75;2.72;;;;;;;;;;10464357;28;20032;-76
2023/01/06 16:54:34;;;;;;;7.57;2.80;;;;;;;;;;10480455;28;20032;-76
2023/01/06 16:59:35;;;;;;;7.50;2.40;;;;;;;;;;10482124;28;20049;-75
2023/01/06 17:04:35;;;;;;;11.23;3.20;;;;;;;;;;10463767;28;20483;-77
2023/01/06 17:09:36;;;;;;;4.03;2.55;;;;;;;;;;10462888;28;20119;-72
2023/01/06 17:14:36;;;;;;;9.77;3.85;;;;;;;;;;10481073;28;20482;-75
2023/01/06 17:19:37;;;;;;;7.80;2.53;;;;;;;;;;10463470;28;20125;-77
2023/01/06 17:24:38;;;;;;;10.02;2.80;;;;;;;;;;10484386;28;20310;-74
2023/01/06 17:29:38;;;;;;;9.43;3.80;;;;;;;;;;10485237;28;20032;-73
2023/01/06 17:34:39;;;;;;;9.50;3.40;;;;;;;;;;10487374;28;20035;-75
2023/01/06 17:39:40;;;;;;;10.23;3.60;;;;;;;;;;10460567;28;20105;-72
2023/01/06 17:44:40;;;;;;;5.18;3.17;;;;;;;;;;10431595;28;20033;-74
2023/01/06 17:49:49;;;;;;;11.73;3.92;;;;;;;;;;10459660;28;20046;-77
2023/01/06 18:00:19;;;;;;;5.93;3.03;;;;;;;;;;10478020;28;20028;-77
2023/01/06 18:05:19;;;;;;;9.13;2.90;;;;;;;;;;10459701;28;20403;-77
2023/01/06 18:10:20;;;;;;;5.78;3.00;;;;;;;;;;10462388;28;20056;-78
2023/01/06 18:15:32;;;;;;;6.65;2.60;;;;;;;;;;10488803;28;20043;-74
2023/01/06 18:20:32;;;;;;;6.80;2.95;;;;;;;;;;10469815;28;20032;-79
2023/01/06 18:25:32;;;;;;;7.53;2.88;;;;;;;;;;10466424;28;20414;-75
2023/01/06 18:30:33;;;;;;;7.30;3.27;;;;;;;;;;10475333;28;20058;-75
2023/01/06 18:35:33;;;;;;;4.53;2.50;;;;;;;;;;10484407;28;20267;-77
2023/01/06 18:40:36;;;;;;;8.18;3.20;;;;;;;;;;10481927;28;20492;-76
2023/01/06 18:45:37;;;;;;;6.28;2.70;;;;;;;;;;10489483;28;20028;-77
2023/01/06 18:50:41;;;;;;;7.43;2.92;;;;;;;;;;10470537;28;20650;-75
2023/01/06 18:55:46;;;;;;;7.68;2.63;;;;;;;;;;10462557;28;20085;-73
2023/01/06 19:01:06;;;;;;;6.13;2.83;;;;;;;;;;10489766;28;20395;-71
2023/01/06 19:06:09;;;;;;;7.55;3.13;;;;;;;;;;10467850;28;20035;-74
2023/01/06 19:11:17;;;;;;;7.75;2.95;;;;;;;;;;10468425;28;20472;-78
2023/01/06 19:16:20;;;;;;;6.70;2.70;;;;;;;;;;10486297;28;20024;-73
2023/01/06 19:21:21;;;;;;;7.68;2.70;;;;;;;;;;10485007;28;20033;-72
2023/01/06 19:26:31;;;;;;;6.90;2.45;;;;;;;;;;10481512;28;20036;-76
2023/01/06 19:31:31;;;;;;;5.63;2.80;;;;;;;;;;10489764;28;20021;-73
2023/01/06 19:36:39;;;;;;;7.60;2.22;;;;;;;;;;10468444;28;20036;-75
2023/01/06 19:41:40;;;;;;;6.68;3.40;;;;;;;;;;10470722;28;20391;-77
2023/01/06 19:46:41;;;;;;;6.65;3.05;;;;;;;;;;10468690;28;20036;-76
2023/01/06 19:51:41;;;;;;;8.23;3.05;;;;;;;;;;10471983;28;20025;-76
2023/01/06 19:56:42;;;;;;;5.57;2.75;;;;;;;;;;10466934;28;20032;-77
2023/01/06 20:01:43;;;;;;;6.07;2.67;;;;;;;;;;10466617;28;20534;-73
2023/01/06 20:06:43;;;;;;;6.20;2.85;;;;;;;;;;10469473;28;20868;-76
2023/01/06 20:11:43;;;;;;;13.18;4.35;;;;;;;;;;10466033;28;20116;-75
2023/01/06 20:16:44;;;;;;;5.10;2.42;;;;;;;;;;10466541;28;20033;-77
2023/01/06 20:21:44;;;;;;;12.60;2.78;;;;;;;;;;10451104;28;20044;-77
2023/01/06 20:26:44;;;;;;;7.65;3.42;;;;;;;;;;10457157;28;20086;-76
2023/01/06 20:31:45;;;;;;;7.50;2.80;;;;;;;;;;10447043;28;20020;-76
2023/01/06 20:36:45;;;;;;;7.80;2.50;;;;;;;;;;10481114;28;20467;-77
2023/01/06 20:41:45;;;;;;;4.57;2.58;;;;;;;;;;10466371;28;20020;-77
2023/01/06 20:46:46;;;;;;;7.63;2.60;;;;;;;;;;10462993;28;20020;-77
2023/01/06 20:51:46;;;;;;;9.27;2.50;;;;;;;;;;10468063;28;20113;-79
2023/01/06 20:56:46;;;;;;;7.03;2.75;;;;;;;;;;10462549;28;20025;-77
2023/01/06 21:01:46;;;;;;;4.15;1.75;;;;;;;;;;10457098;28;20616;-77
2023/01/06 21:06:47;;;;;;;7.65;2.65;;;;;;;;;;10471568;28;20039;-75
2023/01/06 21:11:47;;;;;;;9.80;2.30;;;;;;;;;;10466455;28;20024;-78
2023/01/06 21:16:48;;;;;;;6.50;2.30;;;;;;;;;;10471508;28;20035;-76
2023/01/06 21:21:49;;;;;;;8.60;2.95;;;;;;;;;;10502280;28;20474;-72
2023/01/06 21:26:49;;;;;;;10.23;3.35;;;;;;;;;;10476537;28;20028;-76
2023/01/06 21:31:50;;;;;;;7.45;3.00;;;;;;;;;;10468807;28;20078;-73
2023/01/06 21:36:50;;;;;;;10.55;3.28;;;;;;;;;;10463012;28;20115;-72
2023/01/06 21:47:10;;;;;;;10.40;3.10;;;;;;;;;;10482611;28;20028;-77
2023/01/06 21:52:14;;;;;;;6.78;3.28;;;;;;;;;;10460237;28;20518;-78
2023/01/06 21:57:14;;;;;;;5.85;2.70;;;;;;;;;;10475690;28;20113;-76
2023/01/06 22:02:15;;;;;;;7.00;2.53;;;;;;;;;;10475165;28;20024;-76
2023/01/06 22:07:15;;;;;;;10.77;2.70;;;;;;;;;;10475661;28;20787;-75
2023/01/06 22:12:17;;;;;;;8.83;3.27;;;;;;;;;;10489144;22;20092;-77
2023/01/06 22:17:18;;;;;;;8.82;2.80;;;;;;;;;;10434411;28;20487;-79
2023/01/06 22:22:20;;;;;;;7.85;3.38;;;;;;;;;;10451487;28;20151;-77
2023/01/06 22:27:21;;;;;;;28.45;14.25;;;;;;;;;;10421457;28;20491;-76
2023/01/06 22:32:21;;;;;;;30.90;13.65;;;;;;;;;;10427055;28;20116;-80
2023/01/06 22:37:21;;;;;;;33.30;15.88;;;;;;;;;;10440094;28;20485;-81
2023/01/06 22:42:22;;;;;;;39.03;15.43;;;;;;;;;;10452189;28;20060;-74
2023/01/06 22:47:22;;;;;;;43.03;17.25;;;;;;;;;;10451227;28;20035;-82
2023/01/06 22:52:22;;;;;;;49.65;17.30;;;;;;;;;;10430799;28;20017;-79
2023/01/06 22:57:22;;;;;;;38.08;17.08;;;;;;;;;;10443357;28;20039;-79
2023/01/06 23:02:23;;;;;;;37.00;16.35;;;;;;;;;;10444400;28;20498;-77
2023/01/06 23:07:23;;;;;;;37.00;14.55;;;;;;;;;;10435778;28;20487;-78
2023/01/06 23:12:24;;;;;;;35.43;15.70;;;;;;;;;;10447057;28;20132;-78
2023/01/06 23:17:24;;;;;;;28.45;13.30;;;;;;;;;;10431541;28;20270;-74
2023/01/06 23:22:24;;;;;;;29.65;13.73;;;;;;;;;;10470614;28;20478;-78
2023/01/06 23:27:24;;;;;;;28.60;13.83;;;;;;;;;;10441989;28;20547;-73
2023/01/06 23:32:25;;;;;;;24.02;12.27;;;;;;;;;;10416829;28;20124;-72
2023/01/06 23:37:25;;;;;;;28.98;12.77;;;;;;;;;;10445627;28;20589;-77
2023/01/06 23:42:25;;;;;;;22.65;10.57;;;;;;;;;;10444949;28;20487;-80
2023/01/06 23:47:25;;;;;;;12.93;7.35;;;;;;;;;;10444740;28;20017;-72
2023/01/06 23:52:26;;;;;;;12.23;5.40;;;;;;;;;;10427756;28;20028;-75
2023/01/06 23:57:26;;;;;;;9.93;5.17;;;;;;;;;;10428052;28;20238;-80
